Time;durP1;ratioP1;P1;durP2;ratioP2;P2;SDS_P1;SDS_P2;PMS_P1;PMS_P2;Temp;Humidity;BMP_temperature;BMP_pressure;BME280_temperature;BME280_humidity;BME280_pressure;Samples;Min_cycle;Max_cycle;Signal;HPM_P1;HPM_P2
2022/06/08 00:00:49;;;;;;;15.00;6.32;;;9.70;99.90;;;;;;5046931;28;20517;-77
2022/06/08 00:03:23;;;;;;;10.15;5.90;;;9.70;99.90;;;;;;5049254;28;20054;-78
2022/06/08 00:05:49;;;;;;;11.57;6.38;;;9.60;99.90;;;;;;5044343;28;20855;-80
2022/06/08 00:08:15;;;;;;;10.48;6.22;;;9.60;99.90;;;;;;5069523;28;20045;-77
2022/06/08 00:10:41;;;;;;;12.05;7.25;;;9.80;99.90;;;;;;5031556;28;20147;-77
2022/06/08 00:13:07;;;;;;;14.88;8.23;;;9.60;99.90;;;;;;5078166;28;20033;-78
2022/06/08 00:15:33;;;;;;;13.32;8.13;;;9.60;99.90;;;;;;5050176;28;20052;-77
2022/06/08 00:18:01;;;;;;;7.38;5.90;;;9.70;99.90;;;;;;5080186;28;20053;-77
2022/06/08 00:20:27;;;;;;;12.98;7.63;;;9.70;99.90;;;;;;5045893;28;20127;-78
2022/06/08 00:22:53;;;;;;;10.07;6.50;;;9.60;99.90;;;;;;5080591;28;20052;-78
2022/06/08 00:25:20;;;;;;;9.90;6.03;;;9.60;99.90;;;;;;5046502;28;20436;-78
2022/06/08 00:27:46;;;;;;;8.68;5.72;;;9.60;99.90;;;;;;5050697;28;20099;-77
2022/06/08 00:30:12;;;;;;;10.68;7.15;;;9.50;99.90;;;;;;5080583;28;20936;-79
2022/06/08 00:32:38;;;;;;;14.15;7.85;;;9.50;99.90;;;;;;5080579;28;20447;-77
2022/06/08 00:35:06;;;;;;;17.00;8.80;;;9.50;99.90;;;;;;5059418;28;20044;-77
2022/06/08 00:37:32;;;;;;;18.05;9.50;;;9.60;99.90;;;;;;5062648;28;20045;-79
2022/06/08 00:39:57;;;;;;;17.08;8.82;;;9.60;99.90;;;;;;5079594;28;20481;-77
2022/06/08 00:42:25;;;;;;;18.10;8.43;;;9.70;99.90;;;;;;5032094;28;20041;-78
2022/06/08 00:45:07;;;;;;;18.13;8.57;;;9.70;99.90;;;;;;5062115;28;20448;-77
2022/06/08 00:47:44;;;;;;;16.17;8.65;;;9.70;99.90;;;;;;5081841;28;20052;-77
2022/06/08 00:50:21;;;;;;;14.65;8.65;;;9.70;99.90;;;;;;5046177;28;20061;-78
2022/06/08 00:52:48;;;;;;;16.20;8.70;;;9.70;99.90;;;;;;5080200;28;20128;-78
2022/06/08 00:55:18;;;;;;;14.13;8.38;;;9.70;99.90;;;;;;5048284;28;20052;-77
2022/06/08 00:57:54;;;;;;;18.05;9.65;;;9.80;99.90;;;;;;5064136;28;20045;-77
2022/06/08 01:00:30;;;;;;;13.40;8.05;;;9.80;99.90;;;;;;5049396;28;20045;-77
2022/06/08 01:02:57;;;;;;;16.88;8.68;;;9.70;99.90;;;;;;5031724;28;20041;-77
2022/06/08 01:05:46;;;;;;;14.65;8.45;;;9.70;99.90;;;;;;5063554;28;20397;-77
2022/06/08 01:08:38;;;;;;;16.23;8.65;;;9.70;99.90;;;;;;5042464;28;20435;-76
2022/06/08 01:11:16;;;;;;;15.98;8.48;;;9.80;99.90;;;;;;5080500;28;20052;-77
2022/06/08 01:13:43;;;;;;;18.10;9.43;;;9.80;99.90;;;;;;5048943;28;20059;-76
2022/06/08 01:16:11;;;;;;;19.85;9.38;;;9.80;99.90;;;;;;5028371;28;20045;-76
2022/06/08 01:18:37;;;;;;;17.35;8.50;;;9.80;99.90;;;;;;5046566;28;20040;-78
2022/06/08 01:21:21;;;;;;;14.32;9.30;;;9.80;99.90;;;;;;5080090;28;20041;-77
2022/06/08 01:24:03;;;;;;;13.73;8.35;;;9.80;99.90;;;;;;5079517;28;20047;-76
2022/06/08 01:26:43;;;;;;;17.17;8.75;;;9.80;99.90;;;;;;5045715;28;20151;-77
2022/06/08 01:29:29;;;;;;;11.82;7.35;;;9.80;99.90;;;;;;5059560;28;20087;-76
2022/06/08 01:32:21;;;;;;;13.65;7.45;;;9.70;99.90;;;;;;5071143;28;20082;-77
2022/06/08 01:35:08;;;;;;;15.07;8.07;;;9.60;99.90;;;;;;5044203;28;20052;-77
2022/06/08 01:38:04;;;;;;;16.90;8.77;;;9.60;99.90;;;;;;5047848;28;20535;-77
2022/06/08 01:41:14;;;;;;;17.52;8.18;;;9.60;99.90;;;;;;5054842;28;20059;-76
2022/06/08 01:44:02;;;;;;;15.82;8.73;;;9.50;99.90;;;;;;5048214;28;20049;-76
2022/06/08 01:46:42;;;;;;;16.60;9.02;;;9.50;99.90;;;;;;5068681;28;20559;-77
2022/06/08 01:49:17;;;;;;;13.50;8.52;;;9.50;99.90;;;;;;5079162;28;20057;-77
2022/06/08 01:51:52;;;;;;;16.40;8.45;;;9.60;99.90;;;;;;5047493;28;20036;-76
2022/06/08 01:54:27;;;;;;;15.63;9.38;;;9.60;99.90;;;;;;5065655;28;20547;-76
2022/06/08 01:57:10;;;;;;;22.55;10.55;;;9.60;99.90;;;;;;5047625;28;21956;-76
2022/06/08 01:59:59;;;;;;;241.60;13.43;;;9.60;99.90;;;;;;5081223;28;20045;-76
2022/06/08 02:02:31;;;;;;;14.25;8.43;;;9.50;99.90;;;;;;5049344;28;20041;-77
2022/06/08 02:04:59;;;;;;;;;;;9.40;99.90;;;;;;5065245;28;20044;-77
2022/06/08 02:07:48;;;;;;;14.65;9.02;;;9.40;99.90;;;;;;5033278;28;20434;-76
2022/06/08 02:10:23;;;;;;;16.00;9.35;;;9.40;99.90;;;;;;5078612;28;20041;-76
2022/06/08 02:13:11;;;;;;;19.38;9.93;;;9.40;99.90;;;;;;5049528;28;20408;-78
2022/06/08 02:15:46;;;;;;;20.35;10.15;;;9.40;99.90;;;;;;5049254;28;20562;-76
2022/06/08 02:18:20;;;;;;;20.63;10.30;;;9.40;99.90;;;;;;5061102;28;20046;-76
2022/06/08 02:21:13;;;;;;;16.63;10.35;;;9.40;99.90;;;;;;5035001;28;20049;-76
2022/06/08 02:23:46;;;;;;;22.42;9.95;;;9.40;99.90;;;;;;5051017;28;20045;-76
2022/06/08 02:26:23;;;;;;;23.30;10.80;;;9.40;99.90;;;;;;5048072;28;20041;-76
2022/06/08 02:29:01;;;;;;;17.77;9.10;;;9.40;99.90;;;;;;5045897;28;20577;-76
2022/06/08 02:31:31;;;;;;;19.33;9.38;;;9.40;99.90;;;;;;5044775;28;20055;-76
2022/06/08 02:36:51;;;;;;;20.73;10.57;;;9.30;99.90;;;;;;5077454;28;20079;-77
2022/06/08 02:39:49;;;;;;;22.13;10.98;;;9.30;99.90;;;;;;5042879;28;20048;-76
2022/06/08 02:42:21;;;;;;;20.20;9.85;;;9.40;99.90;;;;;;5075852;28;20048;-77
2022/06/08 02:44:52;;;;;;;18.73;10.25;;;9.50;99.90;;;;;;5040374;28;20045;-76
2022/06/08 02:47:30;;;;;;;19.52;10.35;;;9.50;99.90;;;;;;5028380;28;20045;-76
2022/06/08 02:49:59;;;;;;;19.95;9.65;;;9.50;99.90;;;;;;5074666;28;20140;-76
2022/06/08 02:52:27;;;;;;;19.50;10.30;;;9.50;99.90;;;;;;5060617;28;20082;-77
2022/06/08 02:54:54;;;;;;;17.83;9.90;;;9.40;99.90;;;;;;5061826;28;20110;-76
2022/06/08 02:57:43;;;;;;;19.30;10.30;;;9.50;99.90;;;;;;5045094;28;20045;-77
2022/06/08 03:00:14;;;;;;;20.50;10.95;;;9.50;99.90;;;;;;5046468;28;20056;-75
2022/06/08 03:02:48;;;;;;;22.23;11.23;;;9.50;99.90;;;;;;5076390;28;20577;-79
2022/06/08 03:05:17;;;;;;;22.85;10.30;;;9.50;99.90;;;;;;5045336;28;20079;-76
2022/06/08 03:07:58;;;;;;;20.75;10.80;;;9.50;99.90;;;;;;5061707;28;20037;-76
2022/06/08 03:10:27;;;;;;;21.23;11.07;;;9.50;99.90;;;;;;5023981;28;20041;-76
2022/06/08 03:13:04;;;;;;;21.73;11.10;;;9.60;99.90;;;;;;5059052;28;20139;-75
2022/06/08 03:15:31;;;;;;;19.48;10.35;;;9.70;99.90;;;;;;5046203;28;20131;-75
2022/06/08 03:17:57;;;;;;;21.73;10.65;;;9.60;99.90;;;;;;5048247;28;20065;-76
2022/06/08 03:20:25;;;;;;;22.30;10.80;;;9.50;99.90;;;;;;5032619;28;20044;-76
2022/06/08 03:22:51;;;;;;;21.58;10.90;;;9.60;99.90;;;;;;5070676;28;20067;-76
2022/06/08 03:25:18;;;;;;;22.42;11.02;;;9.60;99.90;;;;;;5059712;28;20045;-77
2022/06/08 03:27:44;;;;;;;23.13;11.38;;;9.70;99.90;;;;;;5046053;28;20102;-75
2022/06/08 03:30:12;;;;;;;24.65;11.93;;;9.70;99.90;;;;;;5028928;28;21972;-76
2022/06/08 03:32:38;;;;;;;22.35;12.10;;;9.70;99.90;;;;;;5057710;28;20048;-75
2022/06/08 03:35:04;;;;;;;22.05;11.90;;;9.80;99.90;;;;;;5043263;28;20116;-75
2022/06/08 03:37:30;;;;;;;24.48;11.15;;;9.80;99.90;;;;;;5076957;28;20536;-76
2022/06/08 03:39:56;;;;;;;20.95;11.30;;;9.80;99.90;;;;;;5064394;28;20037;-75
2022/06/08 03:42:22;;;;;;;30.08;12.30;;;9.90;99.90;;;;;;5081062;28;20409;-75
2022/06/08 03:44:48;;;;;;;22.98;11.98;;;9.80;99.90;;;;;;5064257;28;20045;-75
2022/06/08 03:47:21;;;;;;;20.67;11.23;;;9.80;99.90;;;;;;5034622;28;20149;-75
2022/06/08 03:49:48;;;;;;;28.70;12.63;;;9.90;99.90;;;;;;5030314;28;20053;-75
2022/06/08 03:52:25;;;;;;;24.00;12.48;;;9.90;99.90;;;;;;5047031;28;20060;-75
2022/06/08 03:54:54;;;;;;;28.80;14.05;;;10.00;99.90;;;;;;5078983;28;20053;-76
2022/06/08 03:57:22;;;;;;;24.15;12.70;;;10.00;99.90;;;;;;5049577;28;20108;-75
2022/06/08 03:59:49;;;;;;;29.10;13.82;;;10.10;99.90;;;;;;5048503;28;20057;-75
2022/06/08 04:02:16;;;;;;;31.38;14.07;;;10.10;99.90;;;;;;5064845;28;20051;-75
2022/06/08 04:04:42;;;;;;;35.45;15.02;;;10.10;99.90;;;;;;5060377;28;20048;-75
2022/06/08 04:07:08;;;;;;;30.95;14.93;;;10.20;99.90;;;;;;5063300;28;20109;-75
2022/06/08 04:09:34;;;;;;;35.03;15.60;;;10.30;99.90;;;;;;5049081;28;20084;-75
2022/06/08 04:12:01;;;;;;;29.10;15.50;;;10.30;99.90;;;;;;5063609;28;20051;-76
2022/06/08 04:14:27;;;;;;;32.10;16.38;;;10.40;99.90;;;;;;5049154;28;20041;-76
2022/06/08 04:16:53;;;;;;;36.72;14.88;;;10.50;99.90;;;;;;5080929;28;21717;-78
2022/06/08 04:19:19;;;;;;;33.65;15.35;;;10.50;99.90;;;;;;5061640;28;20041;-76
2022/06/08 04:21:45;;;;;;;31.52;15.30;;;10.60;99.90;;;;;;5030134;28;20057;-75
2022/06/08 04:24:14;;;;;;;36.15;15.88;;;10.70;99.90;;;;;;5080326;28;20071;-76
2022/06/08 04:26:40;;;;;;;34.25;16.10;;;10.70;99.90;;;;;;5045653;28;20379;-75
2022/06/08 04:29:07;;;;;;;37.05;17.20;;;10.80;99.90;;;;;;5064140;28;20052;-75
2022/06/08 04:31:34;;;;;;;36.22;17.42;;;10.80;99.90;;;;;;5049572;28;20098;-76
2022/06/08 04:34:06;;;;;;;35.38;16.80;;;11.00;99.90;;;;;;5063665;28;20047;-77
2022/06/08 04:36:33;;;;;;;37.40;17.25;;;11.00;99.90;;;;;;5028124;28;20393;-75
2022/06/08 04:38:59;;;;;;;36.58;17.30;;;11.10;99.90;;;;;;5046904;28;20091;-76
2022/06/08 04:41:26;;;;;;;30.50;15.70;;;11.10;99.90;;;;;;5061085;28;20044;-76
2022/06/08 04:43:53;;;;;;;31.75;16.33;;;11.20;99.90;;;;;;5046111;28;20055;-76
2022/06/08 04:46:19;;;;;;;35.58;16.75;;;11.20;99.90;;;;;;5081140;28;20095;-76
2022/06/08 04:48:46;;;;;;;39.03;17.80;;;11.30;99.90;;;;;;5047962;28;20140;-76
2022/06/08 04:51:14;;;;;;;34.17;18.65;;;11.40;99.90;;;;;;5045747;28;20075;-76
2022/06/08 04:53:42;;;;;;;35.33;19.20;;;11.50;99.90;;;;;;5059064;28;20094;-75
2022/06/08 04:56:08;;;;;;;39.88;19.42;;;11.60;99.90;;;;;;5047944;28;20060;-76
2022/06/08 04:58:34;;;;;;;39.63;19.90;;;11.80;99.90;;;;;;5079579;28;20383;-76
2022/06/08 05:01:02;;;;;;;43.53;19.20;;;11.90;99.90;;;;;;5048135;28;20078;-76
2022/06/08 05:03:29;;;;;;;35.15;19.15;;;12.10;99.90;;;;;;5045093;28;20041;-75
2022/06/08 05:05:56;;;;;;;36.72;19.27;;;12.30;99.90;;;;;;5030258;28;20072;-76
2022/06/08 05:08:23;;;;;;;36.97;20.33;;;12.60;99.90;;;;;;5084009;28;20099;-76
2022/06/08 05:10:50;;;;;;;37.38;18.92;;;12.90;99.90;;;;;;5046984;28;20041;-77
2022/06/08 05:13:17;;;;;;;34.75;20.25;;;13.10;99.90;;;;;;5032324;28;20056;-75
2022/06/08 05:15:44;;;;;;;36.35;20.10;;;13.30;99.90;;;;;;5063044;28;20040;-75
2022/06/08 05:18:12;;;;;;;32.20;18.33;;;13.50;99.90;;;;;;5081489;28;20079;-75
2022/06/08 05:20:40;;;;;;;29.80;18.50;;;13.70;99.90;;;;;;5053459;28;20466;-76
2022/06/08 05:23:08;;;;;;;29.05;17.75;;;13.80;99.90;;;;;;5020662;28;20037;-76
2022/06/08 05:25:37;;;;;;;32.17;18.23;;;13.80;99.90;;;;;;5047203;28;20045;-76
2022/06/08 05:28:06;;;;;;;27.98;17.25;;;13.90;99.90;;;;;;5028037;28;20132;-75
2022/06/08 05:30:33;;;;;;;27.92;16.98;;;14.00;99.90;;;;;;5059436;28;20049;-76
2022/06/08 05:33:00;;;;;;;28.77;17.38;;;14.00;99.90;;;;;;5048788;28;20052;-76
2022/06/08 05:35:27;;;;;;;29.80;17.17;;;14.00;99.90;;;;;;5062894;28;20481;-76
2022/06/08 05:37:53;;;;;;;28.55;17.08;;;14.00;99.90;;;;;;5044594;28;20179;-76
2022/06/08 05:40:20;;;;;;;29.08;17.65;;;14.00;99.90;;;;;;5063252;28;20481;-79
2022/06/08 05:42:46;;;;;;;27.55;17.45;;;14.00;99.90;;;;;;5028351;28;20130;-76
2022/06/08 05:45:19;;;;;;;30.90;17.52;;;14.10;99.90;;;;;;5059721;28;20072;-76
2022/06/08 05:47:45;;;;;;;31.30;18.48;;;14.10;99.90;;;;;;5065318;28;20049;-76
2022/06/08 05:50:12;;;;;;;30.92;18.23;;;14.10;99.90;;;;;;5061041;28;20068;-76
2022/06/08 05:52:38;;;;;;;25.63;17.20;;;14.10;99.90;;;;;;5012796;28;20114;-75
2022/06/08 05:55:04;;;;;;;30.38;17.23;;;14.20;99.90;;;;;;5060913;28;20048;-78
2022/06/08 05:57:30;;;;;;;25.95;16.38;;;14.10;99.90;;;;;;5062389;28;20781;-76
2022/06/08 05:59:56;;;;;;;27.02;17.13;;;14.10;99.90;;;;;;5079983;28;20053;-76
2022/06/08 06:02:22;;;;;;;31.92;17.75;;;14.10;99.90;;;;;;5062786;28;20047;-76
2022/06/08 06:04:48;;;;;;;31.25;18.00;;;14.20;99.90;;;;;;5046508;28;20437;-76
2022/06/08 06:07:14;;;;;;;29.88;17.58;;;14.30;99.90;;;;;;5029663;28;20162;-76
2022/06/08 06:09:41;;;;;;;33.75;18.48;;;14.30;99.90;;;;;;5046072;28;20148;-78
2022/06/08 06:12:08;;;;;;;29.15;17.33;;;14.40;99.90;;;;;;5029737;28;20422;-77
2022/06/08 06:14:35;;;;;;;30.05;18.70;;;14.50;99.90;;;;;;5046561;28;20057;-77
2022/06/08 06:17:02;;;;;;;29.02;18.02;;;14.60;99.90;;;;;;5010679;28;20049;-77
2022/06/08 06:19:27;;;;;;;30.92;19.23;;;14.70;99.90;;;;;;5044717;28;20127;-78
2022/06/08 06:21:53;;;;;;;31.50;19.00;;;14.80;99.90;;;;;;5061410;28;20148;-76
2022/06/08 06:24:19;;;;;;;32.92;19.98;;;14.90;99.90;;;;;;5058298;28;20036;-78
2022/06/08 06:26:46;;;;;;;32.47;20.13;;;15.00;99.90;;;;;;5046367;28;20052;-77
2022/06/08 06:29:12;;;;;;;33.33;19.58;;;15.10;99.90;;;;;;5050922;28;20124;-76
2022/06/08 06:31:49;;;;;;;33.67;19.75;;;15.20;99.90;;;;;;5032313;28;20421;-76
2022/06/08 06:34:18;;;;;;;30.92;19.70;;;15.10;99.90;;;;;;5077201;28;20060;-77
2022/06/08 06:36:45;;;;;;;29.75;19.23;;;15.20;99.90;;;;;;5060429;28;20041;-78
2022/06/08 06:39:11;;;;;;;29.95;18.08;;;15.30;99.90;;;;;;5046046;28;20079;-76
2022/06/08 06:41:38;;;;;;;35.55;19.17;;;15.40;99.90;;;;;;5034188;28;20049;-76
2022/06/08 06:44:04;;;;;;;31.75;19.15;;;15.50;99.90;;;;;;5033908;28;20041;-76
2022/06/08 06:46:31;;;;;;;29.10;18.58;;;15.50;99.90;;;;;;5032066;28;20120;-77
2022/06/08 06:48:56;;;;;;;34.25;20.02;;;15.60;99.90;;;;;;5033206;28;20075;-76
2022/06/08 06:51:22;;;;;;;30.77;19.42;;;15.80;99.90;;;;;;5080655;28;20509;-78
2022/06/08 06:53:49;;;;;;;29.65;18.65;;;15.80;99.90;;;;;;5035238;28;20123;-77
2022/06/08 06:56:14;;;;;;;32.05;20.75;;;16.00;99.90;;;;;;5040090;28;20130;-77
2022/06/08 06:58:49;;;;;;;31.38;19.75;;;16.30;99.90;;;;;;5049194;28;20597;-76
2022/06/08 07:01:17;;;;;;;33.80;20.30;;;16.50;99.90;;;;;;5050988;28;20146;-76
2022/06/08 07:03:44;;;;;;;27.83;17.63;;;16.80;99.90;;;;;;5083434;28;20088;-76
2022/06/08 07:06:10;;;;;;;27.70;17.50;;;16.80;99.90;;;;;;5084204;28;20049;-77
2022/06/08 07:08:36;;;;;;;22.90;15.82;;;16.90;99.90;;;;;;5054416;28;20566;-77
2022/06/08 07:13:47;;;;;;;28.35;17.25;;;16.90;99.90;;;;;;5054626;28;20054;-76
2022/06/08 07:16:13;;;;;;;27.05;17.27;;;17.00;99.90;;;;;;5051602;28;20048;-79
2022/06/08 07:18:39;;;;;;;23.40;16.60;;;17.10;99.90;;;;;;5048486;28;20155;-76
2022/06/08 07:21:10;;;;;;;22.30;15.68;;;17.30;99.90;;;;;;5059990;28;20178;-75
2022/06/08 07:23:36;;;;;;;20.77;14.98;;;17.40;99.90;;;;;;5050198;28;20123;-76
2022/06/08 07:26:02;;;;;;;20.88;14.60;;;17.50;99.90;;;;;;5061728;28;20136;-76
2022/06/08 07:28:28;;;;;;;23.92;15.15;;;17.40;99.90;;;;;;5058451;28;20215;-76
2022/06/08 07:30:54;;;;;;;21.27;15.05;;;17.60;99.90;;;;;;5041033;28;20109;-78
2022/06/08 07:33:21;;;;;;;21.83;14.68;;;17.80;99.90;;;;;;5043010;28;20048;-77
2022/06/08 07:35:47;;;;;;;25.80;15.15;;;17.90;99.90;;;;;;5053681;28;20510;-77
2022/06/08 07:38:13;;;;;;;21.05;14.20;;;17.80;99.90;;;;;;5048112;28;20124;-76
2022/06/08 07:40:39;;;;;;;21.17;14.23;;;17.90;99.90;;;;;;5032706;28;20152;-77
2022/06/08 07:43:05;;;;;;;19.15;14.02;;;18.10;99.90;;;;;;5037147;28;20052;-77
2022/06/08 07:45:31;;;;;;;21.73;13.73;;;18.20;99.90;;;;;;5049555;28;20045;-76
2022/06/08 07:50:42;;;;;;;20.05;15.00;;;18.40;99.90;;;;;;5025218;28;20068;-76
2022/06/08 07:53:08;;;;;;;22.50;15.13;;;18.60;99.90;;;;;;5065627;28;20554;-77
2022/06/08 07:55:35;;;;;;;19.00;13.93;;;18.70;99.90;;;;;;5044653;28;20538;-77
2022/06/08 07:58:02;;;;;;;17.30;10.88;;;18.80;99.90;;;;;;5071241;28;20054;-76
2022/06/08 08:00:28;;;;;;;15.73;11.05;;;18.60;99.90;;;;;;5022508;28;20135;-76
2022/06/08 08:02:55;;;;;;;19.13;12.68;;;18.40;99.90;;;;;;5027906;28;20434;-77
2022/06/08 08:05:22;;;;;;;15.40;11.13;;;18.50;99.90;;;;;;5023418;28;20084;-77
2022/06/08 08:07:50;;;;;;;17.35;11.70;;;18.60;99.90;;;;;;5046672;28;20052;-76
2022/06/08 08:10:20;;;;;;;19.23;11.75;;;18.60;99.90;;;;;;5058663;28;20120;-77
2022/06/08 08:12:47;;;;;;;16.30;11.70;;;18.70;99.90;;;;;;5051733;28;20048;-76
2022/06/08 08:15:14;;;;;;;17.63;11.95;;;18.80;99.90;;;;;;5043393;28;20045;-76
2022/06/08 08:17:41;;;;;;;17.55;12.13;;;18.90;99.90;;;;;;5026871;28;20044;-75
2022/06/08 08:20:08;;;;;;;17.45;11.98;;;19.10;99.90;;;;;;5044292;28;20464;-76
2022/06/08 08:22:34;;;;;;;19.00;12.77;;;19.30;99.90;;;;;;5048465;28;20037;-75
2022/06/08 08:25:00;;;;;;;15.30;11.32;;;19.50;99.90;;;;;;5053835;28;20052;-75
2022/06/08 08:27:26;;;;;;;14.98;11.10;;;19.50;99.90;;;;;;5032937;28;20045;-77
2022/06/08 08:29:52;;;;;;;15.70;10.77;;;19.60;99.90;;;;;;5060034;28;20103;-75
2022/06/08 08:32:18;;;;;;;13.10;9.93;;;19.50;99.90;;;;;;5035552;28;20048;-75
2022/06/08 08:34:44;;;;;;;13.75;10.13;;;19.60;99.90;;;;;;5060178;28;20075;-76
2022/06/08 08:37:10;;;;;;;13.55;9.65;;;19.70;99.90;;;;;;5057758;28;20052;-76
2022/06/08 08:39:36;;;;;;;14.25;9.38;;;19.90;99.90;;;;;;5059766;28;20040;-77
2022/06/08 08:42:21;;;;;;;10.88;8.10;;;20.00;99.90;;;;;;5064464;28;20049;-76
2022/06/08 08:44:49;;;;;;;11.07;7.60;;;20.00;99.90;;;;;;5044451;28;20059;-76
2022/06/08 08:47:42;;;;;;;8.90;6.85;;;20.10;99.90;;;;;;5047107;28;20051;-76
2022/06/08 08:50:25;;;;;;;9.02;5.80;;;20.00;99.90;;;;;;5060152;28;20113;-76
2022/06/08 08:52:51;;;;;;;6.07;4.88;;;19.90;99.90;;;;;;5063653;28;20082;-76
2022/06/08 08:55:45;;;;;;;6.32;4.47;;;19.90;99.90;;;;;;5046348;28;20052;-76
2022/06/08 08:58:18;;;;;;;4.57;3.75;;;19.90;99.90;;;;;;5059809;28;20412;-76
2022/06/08 09:00:44;;;;;;;7.22;4.22;;;20.50;99.90;;;;;;5061301;28;20047;-76
2022/06/08 09:03:31;;;;;;;4.00;3.60;;;20.60;99.90;;;;;;5045729;28;20048;-76
2022/06/08 09:06:18;;;;;;;5.32;4.10;;;21.00;99.90;;;;;;5062251;28;20045;-75
2022/06/08 09:08:48;;;;;;;4.47;3.78;;;21.30;99.90;;;;;;5044301;28;20469;-76
2022/06/08 09:11:24;;;;;;;6.18;3.83;;;21.30;99.90;;;;;;5037475;28;20445;-76
2022/06/08 09:13:58;;;;;;;5.07;4.22;;;21.30;99.90;;;;;;5085966;28;20053;-78
2022/06/08 09:16:40;;;;;;;5.90;4.10;;;21.30;99.90;;;;;;5052189;28;20049;-75
2022/06/08 09:19:22;;;;;;;5.45;4.25;;;21.20;99.90;;;;;;5052039;28;20236;-76
2022/06/08 09:21:54;;;;;;;5.15;4.60;;;21.20;99.90;;;;;;5057930;28;20036;-75
2022/06/08 09:24:37;;;;;;;5.95;5.03;;;21.10;99.90;;;;;;5063554;28;20386;-76
2022/06/08 09:27:23;;;;;;;5.72;4.70;;;21.20;99.90;;;;;;5042967;28;20041;-75
2022/06/08 09:30:07;;;;;;;6.05;4.43;;;21.30;99.90;;;;;;5076708;28;20135;-76
2022/06/08 09:32:56;;;;;;;6.45;3.78;;;21.60;99.90;;;;;;5081524;28;20052;-75
2022/06/08 09:35:37;;;;;;;5.30;4.32;;;21.60;99.90;;;;;;5054618;28;20045;-76
2022/06/08 09:38:14;;;;;;;5.43;4.07;;;21.70;99.90;;;;;;5052958;28;20078;-75
2022/06/08 09:41:22;;;;;;;6.25;4.25;;;21.70;99.90;;;;;;5057229;28;20513;-76
2022/06/08 09:44:07;;;;;;;5.30;4.80;;;21.70;99.90;;;;;;5081484;28;20103;-75
2022/06/08 09:53:04;;;;;;;6.07;3.60;;;21.90;99.90;;;;;;5052637;28;20052;-75
2022/06/08 09:55:46;;;;;;;5.35;3.80;;;21.50;99.90;;;;;;5033746;28;20068;-75
2022/06/08 09:58:52;;;;;;;5.10;3.65;;;21.50;99.90;;;;;;5063292;28;20132;-76
2022/06/08 10:01:39;;;;;;;5.10;3.53;;;21.40;99.90;;;;;;5048161;28;20550;-75
2022/06/08 10:04:09;;;;;;;6.10;3.70;;;21.40;99.90;;;;;;5033527;28;20053;-76
2022/06/08 10:06:36;;;;;;;;;;;21.40;99.90;;;;;;5038369;28;20477;-76
2022/06/08 10:09:08;;;;;;;4.32;3.60;;;21.40;99.90;;;;;;5042503;28;19924;-76
2022/06/08 10:11:45;;;;;;;6.53;3.40;;;21.70;99.90;;;;;;5078220;28;20080;-77
2022/06/08 10:14:39;;;;;;;5.38;3.50;;;21.90;99.90;;;;;;5084625;28;20094;-75
2022/06/08 10:17:20;;;;;;;4.05;2.33;;;21.80;99.90;;;;;;5058124;28;20515;-76
2022/06/08 10:20:05;;;;;;;3.42;2.55;;;21.60;99.90;;;;;;5057613;28;20052;-75
2022/06/08 10:22:36;;;;;;;4.53;3.05;;;21.40;99.90;;;;;;5063118;28;20052;-75
2022/06/08 10:25:31;;;;;;;5.40;3.30;;;21.50;99.90;;;;;;5050879;28;20052;-76
2022/06/08 10:28:33;;;;;;;3.13;2.83;;;21.90;99.90;;;;;;5077844;28;20033;-75
2022/06/08 10:31:21;;;;;;;4.22;2.65;;;22.60;99.90;;;;;;5052271;28;20389;-76
2022/06/08 10:33:50;;;;;;;4.85;2.90;;;23.10;99.90;;;;;;5056238;28;20071;-77
2022/06/08 10:36:18;;;;;;;3.67;3.20;;;23.30;99.90;;;;;;5037503;28;20563;-76
2022/06/08 10:38:44;;;;;;;7.38;4.03;;;23.10;99.90;;;;;;5041532;28;20047;-76
2022/06/08 10:43:58;;;;;;;6.20;4.38;;;22.90;99.90;;;;;;5031437;28;20049;-76
2022/06/08 10:46:47;;;;;;;5.60;3.90;;;23.10;99.90;;;;;;5036120;28;20055;-75
2022/06/08 10:49:32;;;;;;;4.68;4.25;;;23.40;99.90;;;;;;5036580;28;20062;-77
2022/06/08 10:52:17;;;;;;;8.50;5.40;;;23.00;99.90;;;;;;5071977;28;20524;-76
2022/06/08 10:55:13;;;;;;;6.88;5.18;;;23.10;99.90;;;;;;5041694;28;20040;-75
2022/06/08 10:57:49;;;;;;;7.15;4.78;;;22.80;99.90;;;;;;5037583;28;20056;-78
2022/06/08 11:00:24;;;;;;;5.57;4.40;;;22.90;99.90;;;;;;5046423;28;20062;-76
2022/06/08 11:02:59;;;;;;;6.28;5.00;;;22.90;99.90;;;;;;5056926;28;20048;-76
2022/06/08 11:05:37;;;;;;;7.20;5.35;;;22.90;99.90;;;;;;5038332;28;20044;-76
2022/06/08 11:08:12;;;;;;;7.53;5.18;;;22.80;99.90;;;;;;5050558;28;20063;-76
2022/06/08 11:10:44;;;;;;;5.05;4.50;;;22.80;99.90;;;;;;5052445;28;20044;-75
2022/06/08 11:13:33;;;;;;;7.07;4.35;;;23.00;99.90;;;;;;5049880;28;20040;-77
2022/06/08 11:16:20;;;;;;;4.63;4.22;;;23.10;99.90;;;;;;5029123;28;20053;-75
2022/06/08 11:18:51;;;;;;;5.20;4.07;;;23.10;99.90;;;;;;5055399;28;20075;-76
2022/06/08 11:21:35;;;;;;;;;;;23.10;99.90;;;;;;5058428;28;20545;-76
2022/06/08 11:24:19;;;;;;;5.38;3.92;;;23.20;99.90;;;;;;5058456;28;19955;-75
2022/06/08 11:26:50;;;;;;;4.85;3.58;;;22.90;99.90;;;;;;5054509;28;20040;-75
2022/06/08 11:29:20;;;;;;;5.70;3.72;;;22.70;99.90;;;;;;5060700;28;20059;-76
2022/06/08 11:31:48;;;;;;;4.93;3.20;;;22.40;99.90;;;;;;5053575;28;20064;-75
2022/06/08 11:34:20;;;;;;;3.83;3.20;;;22.40;99.90;;;;;;5045736;28;20404;-75
2022/06/08 11:37:16;;;;;;;3.97;3.17;;;22.30;99.90;;;;;;5080089;28;20090;-76
2022/06/08 11:40:19;;;;;;;4.88;3.15;;;22.10;99.90;;;;;;5058231;28;20045;-76
2022/06/08 11:42:48;;;;;;;5.57;3.33;;;22.40;99.90;;;;;;5042755;28;20064;-75
2022/06/08 11:45:18;;;;;;;4.80;3.13;;;22.90;99.90;;;;;;5083752;28;20090;-76
2022/06/08 11:47:57;;;;;;;4.22;3.13;;;23.20;99.90;;;;;;5033796;28;20076;-76
2022/06/08 11:50:28;;;;;;;3.35;2.72;;;23.20;99.90;;;;;;5080468;28;20056;-75
2022/06/08 11:53:05;;;;;;;3.70;2.72;;;23.10;99.90;;;;;;5045033;28;20052;-76
2022/06/08 11:55:41;;;;;;;3.97;2.60;;;22.70;99.90;;;;;;5060390;28;20052;-76
2022/06/08 11:58:17;;;;;;;3.65;2.40;;;22.60;99.90;;;;;;5049841;28;20041;-75
2022/06/08 12:00:51;;;;;;;4.65;2.20;;;22.80;99.90;;;;;;5052745;28;20041;-75
2022/06/08 12:03:16;;;;;;;3.33;2.35;;;22.80;99.90;;;;;;5037243;28;20049;-77
2022/06/08 12:05:50;;;;;;;3.25;2.53;;;23.00;99.90;;;;;;5052884;28;20044;-76
2022/06/08 12:08:39;;;;;;;3.60;2.45;;;23.30;99.90;;;;;;5058147;28;20055;-77
2022/06/08 12:11:06;;;;;;;4.28;3.17;;;23.30;99.90;;;;;;5064480;28;20041;-76
2022/06/08 12:13:32;;;;;;;5.25;3.28;;;23.60;99.90;;;;;;5060114;28;20087;-77
2022/06/08 12:16:20;;;;;;;6.47;3.80;;;23.70;99.90;;;;;;5045924;28;20060;-77
2022/06/08 12:19:11;;;;;;;5.93;3.80;;;23.90;99.90;;;;;;5042718;28;20041;-77
2022/06/08 12:21:40;;;;;;;5.43;3.80;;;24.00;99.90;;;;;;5054066;28;20053;-76
2022/06/08 12:24:12;;;;;;;5.32;4.50;;;24.00;99.90;;;;;;5053041;28;20053;-76
2022/06/08 12:27:12;;;;;;;6.93;4.00;;;24.30;99.90;;;;;;5084791;28;20504;-76
2022/06/08 12:29:57;;;;;;;4.35;3.95;;;24.20;99.90;;;;;;5053227;28;20086;-76
2022/06/08 12:32:36;;;;;;;4.60;4.13;;;24.30;99.90;;;;;;5052753;28;20480;-77
2022/06/08 12:35:15;;;;;;;6.70;5.20;;;24.40;99.90;;;;;;5070019;28;20049;-77
2022/06/08 12:37:45;;;;;;;5.55;4.88;;;24.50;99.90;;;;;;5080496;28;20131;-73
2022/06/08 12:40:16;;;;;;;5.45;4.75;;;24.00;99.90;;;;;;5058622;28;20118;-76
2022/06/08 12:42:48;;;;;;;6.68;5.30;;;23.70;99.90;;;;;;5060148;28;20099;-73
2022/06/08 12:45:33;;;;;;;6.47;4.90;;;23.60;99.90;;;;;;5059360;28;20049;-74
2022/06/08 12:48:01;;;;;;;6.40;5.40;;;23.20;99.90;;;;;;5063087;28;20053;-74
2022/06/08 12:50:30;;;;;;;5.68;5.15;;;22.80;99.90;;;;;;5054631;28;20405;-73
2022/06/08 12:52:58;;;;;;;4.80;4.30;;;22.50;99.90;;;;;;5041388;28;20241;-73
2022/06/08 12:55:26;;;;;;;4.85;3.80;;;22.30;99.90;;;;;;5041050;28;20048;-73
2022/06/08 12:57:52;;;;;;;2.65;2.08;;;21.90;99.90;;;;;;5052661;28;20048;-73
2022/06/08 13:00:23;;;;;;;4.43;1.52;;;20.70;99.90;;;;;;5052247;28;20045;-76
2022/06/08 13:02:52;;;;;;;2.85;1.33;;;19.70;99.90;;;;;;5037630;28;20132;-73
2022/06/08 13:05:20;;;;;;;4.93;1.42;;;19.00;99.90;;;;;;5059367;28;20577;-72
2022/06/08 13:07:46;;;;;;;4.20;1.65;;;18.30;99.90;;;;;;5046913;28;20040;-71
2022/06/08 13:10:13;;;;;;;5.07;1.67;;;17.70;99.90;;;;;;5065831;28;20052;-70
2022/06/08 13:12:54;;;;;;;7.05;1.77;;;17.30;99.90;;;;;;5051501;28;20387;-72
2022/06/08 13:15:29;;;;;;;5.18;1.98;;;16.90;99.90;;;;;;5049089;28;20051;-73
2022/06/08 13:17:56;;;;;;;6.10;1.80;;;16.60;99.90;;;;;;5073938;28;20485;-72
2022/06/08 13:20:27;;;;;;;6.80;2.17;;;16.50;99.90;;;;;;5049015;28;20045;-72
2022/06/08 13:22:54;;;;;;;5.30;2.00;;;16.40;99.90;;;;;;5045823;28;20045;-71